Time;durP1;ratioP1;P1;durP2;ratioP2;P2;SDS_P1;SDS_P2;PMS_P1;PMS_P2;Temp;Humidity;BMP_temperature;BMP_pressure;BME280_temperature;BME280_humidity;BME280_pressure;Samples;Min_cycle;Max_cycle;Signal;HPM_P1;HPM_P2
2022/09/25 00:01:45;;;;;;;;;0.00;0.00;;;;;;;;6180926;23;45399;-93
2022/09/25 00:04:10;;;;;;;;;0.00;0.00;;;;;;;;6154402;23;47103;-92
2022/09/25 00:06:36;;;;;;;;;0.00;0.00;;;;;;;;6180029;23;45683;-93
2022/09/25 00:09:01;;;;;;;;;0.00;0.00;;;;;;;;6180308;23;45297;-92
2022/09/25 00:11:31;;;;;;;;;0.00;0.00;;;;;;;;6180737;23;45301;-92
2022/09/25 00:13:57;;;;;;;;;0.00;0.00;;;;;;;;6155825;23;47407;-92
2022/09/25 00:16:23;;;;;;;;;0.00;0.00;;;;;;;;6155394;23;45331;-92
2022/09/25 00:21:34;;;;;;;;;0.00;0.00;;;;;;;;6182092;23;45493;-92
2022/09/25 00:24:02;;;;;;;;;0.00;0.00;;;;;;;;6155127;23;48743;-93
2022/09/25 00:26:28;;;;;;;;;0.00;0.00;;;;;;;;6155704;23;45359;-93
2022/09/25 00:28:53;;;;;;;;;0.00;0.00;;;;;;;;6155076;23;45213;-92
2022/09/25 00:31:23;;;;;;;;;0.00;0.00;;;;;;;;6182213;23;45299;-93
2022/09/25 00:33:48;;;;;;;;;0.00;0.00;;;;;;;;6154382;23;48033;-93
2022/09/25 00:36:13;;;;;;;;;0.00;0.00;;;;;;;;6154905;23;45509;-92
2022/09/25 00:38:39;;;;;;;;;0.00;0.00;;;;;;;;6180608;23;45280;-92
2022/09/25 00:41:05;;;;;;;;;0.00;0.00;;;;;;;;6155476;23;45531;-92
2022/09/25 00:43:36;;;;;;;;;0.00;0.00;;;;;;;;6155613;23;48256;-94
2022/09/25 00:46:04;;;;;;;;;0.00;0.00;;;;;;;;6155071;23;45607;-91
2022/09/25 00:48:29;;;;;;;;;0.00;0.00;;;;;;;;6155335;23;45386;-94
2022/09/25 00:50:56;;;;;;;;;0.00;0.00;;;;;;;;6154791;23;45357;-92
2022/09/25 00:53:30;;;;;;;;;0.00;0.00;;;;;;;;6155551;23;47127;-92
2022/09/25 00:55:57;;;;;;;;;0.00;0.00;;;;;;;;6155374;23;45956;-93
2022/09/25 00:58:24;;;;;;;;;0.00;0.00;;;;;;;;6155274;23;45300;-93
2022/09/25 01:00:50;;;;;;;;;0.00;0.00;;;;;;;;6154762;23;45429;-92
2022/09/25 01:03:16;;;;;;;;;0.00;0.00;;;;;;;;6154688;23;47928;-93
2022/09/25 01:05:43;;;;;;;;;0.00;0.00;;;;;;;;6155108;23;45351;-92
2022/09/25 01:08:11;;;;;;;;;0.00;0.00;;;;;;;;6155618;23;45421;-93
2022/09/25 01:10:36;;;;;;;;;0.00;0.00;;;;;;;;6155174;23;45337;-93
2022/09/25 01:13:02;;;;;;;;;0.00;0.00;;;;;;;;6155541;23;47290;-94
2022/09/25 01:15:49;;;;;;;;;0.00;0.00;;;;;;;;6155110;23;45395;-93
2022/09/25 01:18:15;;;;;;;;;0.00;0.00;;;;;;;;6155227;23;45333;-93
2022/09/25 01:20:59;;;;;;;;;0.00;0.00;;;;;;;;6180626;23;45375;-92
2022/09/25 01:23:43;;;;;;;;;0.00;0.00;;;;;;;;6155140;23;48207;-91
2022/09/25 01:26:14;;;;;;;;;0.00;0.00;;;;;;;;6155240;23;45347;-92
2022/09/25 01:28:55;;;;;;;;;0.00;0.00;;;;;;;;6180524;23;45332;-93
2022/09/25 01:31:40;;;;;;;;;0.00;0.00;;;;;;;;6154890;23;45447;-93
2022/09/25 01:34:29;;;;;;;;;0.00;0.00;;;;;;;;6152747;23;47104;-93
2022/09/25 01:36:57;;;;;;;;;0.00;0.00;;;;;;;;6138570;23;46045;-93
2022/09/25 01:39:43;;;;;;;;;0.00;0.00;;;;;;;;6155665;23;45235;-92
2022/09/25 01:42:11;;;;;;;;;0.00;0.00;;;;;;;;6180196;23;45231;-92
2022/09/25 01:44:50;;;;;;;;;0.00;0.00;;;;;;;;6155586;23;48094;-92
2022/09/25 01:47:19;;;;;;;;;0.00;0.00;;;;;;;;6153737;23;45601;-93
2022/09/25 01:49:47;;;;;;;;;0.00;0.00;;;;;;;;6154955;23;45308;-91
2022/09/25 01:52:16;;;;;;;;;0.00;0.00;;;;;;;;6155156;23;45328;-92
2022/09/25 01:54:47;;;;;;;;;0.00;0.00;;;;;;;;6155228;23;47593;-94
2022/09/25 01:57:20;;;;;;;;;0.00;0.00;;;;;;;;6155036;23;45277;-92
2022/09/25 01:59:48;;;;;;;;;0.00;0.00;;;;;;;;6155431;23;45189;-93
2022/09/25 02:02:18;;;;;;;;;0.00;0.00;;;;;;;;6178944;23;45494;-93
2022/09/25 02:04:53;;;;;;;;;0.00;0.00;;;;;;;;6154917;23;46915;-93
2022/09/25 02:07:21;;;;;;;;;0.00;0.00;;;;;;;;6154511;23;45459;-92
2022/09/25 02:09:50;;;;;;;;;0.00;0.00;;;;;;;;6154853;23;45393;-92
2022/09/25 02:12:33;;;;;;;;;0.00;0.00;;;;;;;;6154653;23;45897;-92
2022/09/25 02:15:08;;;;;;;;;0.00;0.00;;;;;;;;6154644;23;48272;-92
2022/09/25 02:20:31;;;;;;;;;0.00;0.00;;;;;;;;6181883;23;45236;-93
2022/09/25 02:23:05;;;;;;;;;0.00;0.00;;;;;;;;6154487;23;45257;-91
2022/09/25 02:25:41;;;;;;;;;0.00;0.00;;;;;;;;6153838;23;47123;-92
2022/09/25 02:28:07;;;;;;;;;0.00;0.00;;;;;;;;6153917;23;45405;-92
2022/09/25 02:30:32;;;;;;;;;0.00;0.00;;;;;;;;6179393;23;45342;-91
2022/09/25 02:32:57;;;;;;;;;0.00;0.00;;;;;;;;6153499;23;45112;-93
2022/09/25 02:35:26;;;;;;;;;0.00;0.00;;;;;;;;6178963;23;46968;-92
2022/09/25 02:37:52;;;;;;;;;0.00;0.00;;;;;;;;6181217;23;45587;-93
2022/09/25 02:40:18;;;;;;;;;0.00;0.00;;;;;;;;6154552;23;45372;-93
2022/09/25 02:42:48;;;;;;;;;0.00;0.00;;;;;;;;6154178;23;45639;-93
2022/09/25 02:45:31;;;;;;;;;0.00;0.00;;;;;;;;6154137;23;47064;-93
2022/09/25 02:48:16;;;;;;;;;0.00;0.00;;;;;;;;6115456;23;1375643;-93
2022/09/25 02:50:46;;;;;;;;;0.00;0.00;;;;;;;;6150755;23;45309;-93
2022/09/25 02:53:22;;;;;;;;;0.00;0.00;;;;;;;;6150686;23;45527;-93
2022/09/25 02:55:51;;;;;;;;;0.00;0.00;;;;;;;;6150475;23;47575;-92
2022/09/25 02:58:33;;;;;;;;;0.00;0.00;;;;;;;;6149702;23;45306;-92
2022/09/25 03:01:00;;;;;;;;;0.00;0.00;;;;;;;;6150574;23;45924;-92
2022/09/25 03:03:26;;;;;;;;;0.00;0.00;;;;;;;;6150615;23;45163;-92
2022/09/25 03:05:54;;;;;;;;;0.00;0.00;;;;;;;;6150818;23;47205;-93
2022/09/25 03:08:36;;;;;;;;;0.00;0.00;;;;;;;;6150801;23;45615;-92
2022/09/25 03:11:02;;;;;;;;;0.00;0.00;;;;;;;;6151180;23;45517;-92
2022/09/25 03:13:30;;;;;;;;;0.00;0.00;;;;;;;;6176412;23;45572;-93
2022/09/25 03:15:57;;;;;;;;;0.00;0.00;;;;;;;;6149961;23;48226;-92
2022/09/25 03:18:24;;;;;;;;;0.00;0.00;;;;;;;;6150155;23;45431;-92
2022/09/25 03:20:49;;;;;;;;;0.00;0.00;;;;;;;;6150775;23;45315;-92
2022/09/25 03:23:14;;;;;;;;;0.00;0.00;;;;;;;;6150837;23;45483;-92
2022/09/25 03:25:39;;;;;;;;;0.00;0.00;;;;;;;;6150703;23;48506;-91
2022/09/25 03:28:11;;;;;;;;;0.00;0.00;;;;;;;;6175425;23;45472;-92
2022/09/25 03:30:39;;;;;;;;;0.00;0.00;;;;;;;;6149800;23;45728;-92
2022/09/25 03:33:09;;;;;;;;;0.00;0.00;;;;;;;;6150869;23;45438;-93
2022/09/25 03:35:34;;;;;;;;;0.00;0.00;;;;;;;;6150145;23;48512;-91
2022/09/25 03:37:59;;;;;;;;;0.00;0.00;;;;;;;;6152413;23;45213;-92
2022/09/25 03:40:25;;;;;;;;;0.00;0.00;;;;;;;;6175833;23;45226;-93
2022/09/25 03:42:50;;;;;;;;;0.00;0.00;;;;;;;;6175931;23;45284;-93
2022/09/25 03:45:15;;;;;;;;;0.00;0.00;;;;;;;;6175497;23;46996;-93
2022/09/25 03:47:40;;;;;;;;;0.00;0.00;;;;;;;;6175234;23;45670;-94
2022/09/25 03:50:07;;;;;;;;;0.00;0.00;;;;;;;;6151014;23;45482;-93
2022/09/25 03:52:33;;;;;;;;;0.00;0.00;;;;;;;;6151145;23;45354;-92
2022/09/25 03:54:58;;;;;;;;;0.00;0.00;;;;;;;;6150504;23;47062;-94
2022/09/25 03:57:26;;;;;;;;;0.00;0.00;;;;;;;;6175397;23;45751;-94
2022/09/25 03:59:51;;;;;;;;;0.00;0.00;;;;;;;;6176001;23;45316;-93
2022/09/25 04:02:16;;;;;;;;;0.00;0.00;;;;;;;;6175600;23;45433;-93
2022/09/25 04:04:42;;;;;;;;;8.67;8.67;;;;;;;;6175914;23;48000;-93
2022/09/25 04:07:09;;;;;;;;;0.00;0.00;;;;;;;;6174809;23;45925;-92
2022/09/25 04:09:34;;;;;;;;;0.00;0.00;;;;;;;;6175641;23;45301;-92
2022/09/25 04:11:59;;;;;;;;;0.00;0.00;;;;;;;;6175475;23;45153;-92
2022/09/25 04:14:24;;;;;;;;;0.00;0.00;;;;;;;;6150272;23;47388;-93
2022/09/25 04:16:50;;;;;;;;;0.00;0.00;;;;;;;;6174983;23;45479;-93
2022/09/25 04:19:15;;;;;;;;;0.00;0.00;;;;;;;;6176010;23;45208;-94
2022/09/25 04:21:40;;;;;;;;;0.00;0.00;;;;;;;;6175775;23;46011;-93
2022/09/25 04:26:52;;;;;;;;;0.00;0.00;;;;;;;;6151883;23;45274;-94
2022/09/25 04:29:18;;;;;;;;;0.00;0.00;;;;;;;;6176676;23;45299;-95
2022/09/25 04:31:43;;;;;;;;;0.00;0.00;;;;;;;;6151870;23;45557;-94
2022/09/25 04:34:08;;;;;;;;;0.00;0.00;;;;;;;;6176014;23;48176;-94
2022/09/25 04:36:34;;;;;;;;;0.00;0.00;;;;;;;;6176466;23;45710;-94
2022/09/25 04:38:59;;;;;;;;;0.00;0.00;;;;;;;;6176513;23;45453;-94
2022/09/25 04:41:24;;;;;;;;;0.00;0.00;;;;;;;;6176441;23;45446;-93
2022/09/25 04:43:49;;;;;;;;;0.00;0.00;;;;;;;;6176080;23;47209;-94
2022/09/25 04:46:16;;;;;;;;;0.00;0.00;;;;;;;;6175920;23;45955;-94
2022/09/25 04:48:45;;;;;;;;;0.00;0.00;;;;;;;;6151659;23;45320;-93
2022/09/25 04:51:10;;;;;;;;;0.00;0.00;;;;;;;;6175950;23;45414;-94
2022/09/25 04:53:35;;;;;;;;;0.00;0.00;;;;;;;;6176471;23;47168;-94
2022/09/25 04:56:06;;;;;;;;;0.00;0.00;;;;;;;;6175645;23;45450;-93
2022/09/25 04:58:31;;;;;;;;;0.00;0.00;;;;;;;;6150864;23;45544;-92
2022/09/25 05:01:04;;;;;;;;;0.00;0.00;;;;;;;;6175630;23;45567;-93
2022/09/25 05:03:30;;;;;;;;;0.00;0.00;;;;;;;;6150110;23;47194;-93
2022/09/25 05:05:55;;;;;;;;;0.00;0.00;;;;;;;;6175124;23;45632;-93
2022/09/25 05:08:22;;;;;;;;;0.00;0.00;;;;;;;;6176168;23;45470;-93
2022/09/25 05:10:47;;;;;;;;;0.00;0.00;;;;;;;;6175289;23;45328;-92
2022/09/25 05:13:12;;;;;;;;;0.00;0.00;;;;;;;;6150558;23;46890;-93
2022/09/25 05:15:37;;;;;;;;;0.00;0.00;;;;;;;;6175174;23;45722;-93
2022/09/25 05:18:03;;;;;;;;;0.00;0.00;;;;;;;;6174181;23;45500;-93
2022/09/25 05:20:28;;;;;;;;;0.00;0.00;;;;;;;;6174706;23;45308;-92
2022/09/25 05:22:55;;;;;;;;;0.00;0.00;;;;;;;;6175692;23;48235;-93
2022/09/25 05:25:22;;;;;;;;;0.00;0.00;;;;;;;;6150130;23;45167;-93
2022/09/25 05:27:47;;;;;;;;;0.00;0.00;;;;;;;;6153406;23;45365;-93
2022/09/25 05:30:13;;;;;;;;;0.00;0.00;;;;;;;;6149991;23;45455;-94
2022/09/25 05:32:38;;;;;;;;;0.00;0.00;;;;;;;;6150608;23;47937;-92
2022/09/25 05:35:04;;;;;;;;;0.00;0.00;;;;;;;;6175213;23;45332;-93
2022/09/25 05:37:29;;;;;;;;;0.00;0.00;;;;;;;;6150478;23;45644;-94
2022/09/25 05:39:54;;;;;;;;;0.00;0.00;;;;;;;;6174158;23;45454;-94
2022/09/25 05:42:20;;;;;;;;;0.00;0.00;;;;;;;;6175144;23;47049;-93
2022/09/25 05:44:45;;;;;;;;;0.00;0.00;;;;;;;;6175183;23;45642;-93
2022/09/25 05:47:10;;;;;;;;;0.00;0.00;;;;;;;;6174235;23;45398;-93
2022/09/25 05:49:35;;;;;;;;;0.00;0.00;;;;;;;;6175078;23;45486;-93
2022/09/25 05:52:01;;;;;;;;;0.00;0.00;;;;;;;;6174283;23;47929;-92
2022/09/25 05:54:26;;;;;;;;;0.00;0.00;;;;;;;;6174494;23;45715;-92
2022/09/25 05:56:51;;;;;;;;;0.00;0.00;;;;;;;;6174998;23;45291;-94
2022/09/25 05:59:16;;;;;;;;;3.00;1.00;;;;;;;;6175243;23;45366;-93
2022/09/25 06:01:42;;;;;;;;;0.00;0.00;;;;;;;;6174701;23;48269;-92
2022/09/25 06:04:07;;;;;;;;;0.00;0.00;;;;;;;;6173859;23;45273;-93
2022/09/25 06:06:32;;;;;;;;;0.00;0.00;;;;;;;;6174784;23;45367;-93
2022/09/25 06:08:57;;;;;;;;;0.00;0.00;;;;;;;;6151297;23;45283;-93
2022/09/25 06:11:23;;;;;;;;;0.00;0.00;;;;;;;;6173964;23;48073;-94
2022/09/25 06:13:49;;;;;;;;;0.00;0.00;;;;;;;;6172749;23;45730;-93
2022/09/25 06:16:18;;;;;;;;;0.00;0.00;;;;;;;;6148998;23;45244;-93
2022/09/25 06:18:43;;;;;;;;;0.00;0.00;;;;;;;;6149466;23;45324;-93
2022/09/25 06:21:08;;;;;;;;;0.00;0.00;;;;;;;;6151131;23;45610;-93
2022/09/25 06:23:34;;;;;;;;;0.00;0.00;;;;;;;;6174318;23;46098;-92
2022/09/25 06:26:03;;;;;;;;;0.00;0.00;;;;;;;;6151187;23;45576;-92
2022/09/25 06:28:28;;;;;;;;;0.00;0.00;;;;;;;;6149530;23;45331;-92
2022/09/25 06:30:54;;;;;;;;;0.00;0.00;;;;;;;;6174447;23;47439;-92
2022/09/25 06:33:44;;;;;;;;;0.00;0.00;;;;;;;;6176105;23;45545;-94
2022/09/25 06:36:10;;;;;;;;;0.00;0.00;;;;;;;;6031833;23;45428;-92
2022/09/25 06:38:35;;;;;;;;;0.00;0.00;;;;;;;;6007591;23;45390;-91
2022/09/25 06:41:00;;;;;;;;;0.00;0.00;;;;;;;;6008824;23;46961;-87
2022/09/25 06:43:26;;;;;;;;;0.00;0.00;;;;;;;;6031686;23;45330;-87
2022/09/25 06:45:51;;;;;;;;;0.00;0.00;;;;;;;;6031110;23;45657;-87
2022/09/25 06:48:17;;;;;;;;;0.00;0.00;;;;;;;;6030807;23;45331;-89
2022/09/25 06:50:47;;;;;;;;;0.00;0.00;;;;;;;;6030374;23;47299;-90
2022/09/25 06:53:13;;;;;;;;;0.00;0.00;;;;;;;;6031817;23;45416;-94
2022/09/25 06:55:38;;;;;;;;;0.00;0.00;;;;;;;;6031656;23;45347;-92
2022/09/25 06:58:04;;;;;;;;;0.00;0.00;;;;;;;;6031062;23;45497;-89
2022/09/25 07:00:30;;;;;;;;;0.00;0.00;;;;;;;;6007799;23;48012;-94
2022/09/25 07:05:43;;;;;;;;;0.00;0.00;;;;;;;;6031712;23;45342;-89
2022/09/25 07:08:09;;;;;;;;;0.00;0.00;;;;;;;;6008038;23;45470;-92
2022/09/25 07:10:34;;;;;;;;;0.00;0.00;;;;;;;;6007095;23;46337;-93
2022/09/25 07:13:00;;;;;;;;;0.00;0.00;;;;;;;;6064403;23;46422;-91
2022/09/25 07:15:25;;;;;;;;;0.00;0.00;;;;;;;;6151542;23;45229;-92
2022/09/25 07:17:50;;;;;;;;;0.00;0.00;;;;;;;;6150867;23;45345;-95
2022/09/25 07:20:16;;;;;;;;;0.00;0.00;;;;;;;;6151019;23;46995;-96
2022/09/25 07:22:41;;;;;;;;;0.00;0.00;;;;;;;;6176706;23;45399;-93
2022/09/25 07:25:07;;;;;;;;;0.00;0.00;;;;;;;;6152401;23;45338;-88
2022/09/25 07:27:32;;;;;;;;;0.00;0.00;;;;;;;;6151702;23;45600;-95
2022/09/25 07:29:58;;;;;;;;;0.00;0.00;;;;;;;;6154203;23;46148;-93
2022/09/25 07:32:23;;;;;;;;;0.00;0.00;;;;;;;;6177469;23;45768;-96
2022/09/25 07:34:49;;;;;;;;;0.00;0.00;;;;;;;;6149252;23;45366;-86
2022/09/25 07:37:15;;;;;;;;;0.00;0.00;;;;;;;;6174434;23;45502;-93
2022/09/25 07:39:40;;;;;;;;;0.00;0.00;;;;;;;;6150736;23;46296;-93
2022/09/25 07:42:05;;;;;;;;;0.00;0.00;;;;;;;;6174690;23;46277;-90
2022/09/25 07:44:30;;;;;;;;;0.00;0.00;;;;;;;;6176276;23;45355;-91
2022/09/25 07:46:56;;;;;;;;;0.00;0.00;;;;;;;;6164642;23;45752;-96
2022/09/25 07:49:21;;;;;;;;;0.00;0.00;;;;;;;;6182793;23;45307;-94
2022/09/25 07:51:46;;;;;;;;;0.00;0.00;;;;;;;;6181288;23;45526;-91
2022/09/25 07:54:11;;;;;;;;;0.00;0.00;;;;;;;;6155047;23;45454;-94
2022/09/25 07:56:37;;;;;;;;;0.00;0.00;;;;;;;;6183348;23;45364;-94
2022/09/25 07:59:02;;;;;;;;;0.00;0.00;;;;;;;;6181771;23;45533;-93
2022/09/25 08:01:27;;;;;;;;;0.00;0.00;;;;;;;;6175387;23;45241;-89
2022/09/25 08:03:53;;;;;;;;;0.00;0.00;;;;;;;;6180318;23;45355;-89
2022/09/25 08:06:18;;;;;;;;;0.00;0.00;;;;;;;;6152888;23;45712;-89
2022/09/25 08:08:43;;;;;;;;;0.00;0.00;;;;;;;;6153694;23;47079;-95
2022/09/25 08:11:10;;;;;;;;;0.00;0.00;;;;;;;;6155357;23;45183;-91
2022/09/25 08:13:38;;;;;;;;;0.00;0.00;;;;;;;;6159989;23;45245;-87
2022/09/25 08:16:04;;;;;;;;;0.00;0.00;;;;;;;;6154856;23;45441;-88
2022/09/25 08:18:30;;;;;;;;;0.00;0.00;;;;;;;;6154027;23;49462;-91
2022/09/25 08:21:04;;;;;;;;;0.00;0.00;;;;;;;;6180605;23;45416;-89
2022/09/25 08:23:29;;;;;;;;;0.00;0.00;;;;;;;;6181199;23;45423;-91
2022/09/25 08:25:55;;;;;;;;;0.00;0.00;;;;;;;;6185833;23;45400;-91
2022/09/25 08:28:21;;;;;;;;;0.00;0.00;;;;;;;;6157185;23;47309;-91
2022/09/25 08:30:46;;;;;;;;;0.00;0.00;;;;;;;;6179079;23;45318;-93
2022/09/25 08:33:11;;;;;;;;;0.00;0.00;;;;;;;;6156461;23;45446;-92
2022/09/25 08:35:37;;;;;;;;;0.00;0.00;;;;;;;;6158179;23;45280;-94
2022/09/25 08:38:03;;;;;;;;;0.00;0.00;;;;;;;;6156029;23;47954;-93
2022/09/25 08:40:30;;;;;;;;;0.00;0.00;;;;;;;;6180598;23;45341;-91
2022/09/25 08:42:56;;;;;;;;;0.00;0.00;;;;;;;;6154213;23;45400;-90
2022/09/25 08:51:09;;;;;;;;;0.00;0.00;;;;;;;;6180544;23;45355;-90
2022/09/25 08:53:36;;;;;;;;;0.00;0.00;;;;;;;;6181037;23;45267;-92
2022/09/25 08:56:16;;;;;;;;;0.00;0.00;;;;;;;;6154923;23;45388;-87
2022/09/25 08:58:43;;;;;;;;;0.00;0.00;;;;;;;;6181274;23;45373;-94
2022/09/25 09:01:17;;;;;;;;;0.00;0.00;;;;;;;;6154588;23;45658;-92
2022/09/25 09:03:49;;;;;;;;;0.00;0.00;;;;;;;;6180656;23;45313;-93
2022/09/25 09:06:15;;;;;;;;;0.00;0.00;;;;;;;;6154184;23;45304;-91
2022/09/25 09:08:44;;;;;;;;;0.00;0.00;;;;;;;;6154425;23;47061;-88
2022/09/25 09:11:17;;;;;;;;;0.00;0.00;;;;;;;;6154655;23;45384;-92
2022/09/25 09:13:50;;;;;;;;;0.00;0.00;;;;;;;;6155056;23;45185;-90
2022/09/25 09:16:21;;;;;;;;;0.00;0.00;;;;;;;;6180764;23;45474;-91
2022/09/25 09:18:46;;;;;;;;;0.00;0.00;;;;;;;;6177647;23;48253;-89
2022/09/25 09:21:18;;;;;;;;;0.00;0.00;;;;;;;;6181005;23;45369;-89
2022/09/25 09:23:50;;;;;;;;;0.00;0.00;;;;;;;;6179833;23;45619;-94
2022/09/25 09:26:19;;;;;;;;;0.00;0.00;;;;;;;;6180582;23;45397;-91
2022/09/25 09:28:45;;;;;;;;;0.00;0.00;;;;;;;;6153449;23;47133;-89
2022/09/25 09:31:25;;;;;;;;;0.00;0.00;;;;;;;;6179904;23;45779;-90
2022/09/25 09:33:58;;;;;;;;;0.00;0.00;;;;;;;;6181632;23;45339;-93
2022/09/25 09:36:29;;;;;;;;;0.00;0.00;;;;;;;;6179595;23;45369;-91
2022/09/25 09:39:04;;;;;;;;;0.00;0.00;;;;;;;;6179243;23;47002;-92
2022/09/25 09:41:41;;;;;;;;;0.00;0.00;;;;;;;;6166986;23;45272;-94
2022/09/25 09:44:12;;;;;;;;;0.00;0.00;;;;;;;;6158428;23;45572;-90
2022/09/25 09:46:44;;;;;;;;;0.00;0.00;;;;;;;;6186716;23;45220;-94
2022/09/25 09:49:19;;;;;;;;;0.00;0.00;;;;;;;;6187142;23;47433;-94
2022/09/25 09:51:52;;;;;;;;;0.00;0.00;;;;;;;;6159402;23;46157;-89
2022/09/25 09:54:19;;;;;;;;;0.00;0.00;;;;;;;;6156243;23;45626;-88
2022/09/25 09:56:46;;;;;;;;;0.00;0.00;;;;;;;;6177226;23;45379;-88
2022/09/25 09:59:14;;;;;;;;;0.00;0.00;;;;;;;;6177202;23;45424;-91
2022/09/25 10:01:41;;;;;;;;;0.00;0.00;;;;;;;;6152284;23;46272;-89
2022/09/25 10:04:17;;;;;;;;;0.00;0.00;;;;;;;;6152285;23;45638;-88
2022/09/25 10:06:49;;;;;;;;;0.00;0.00;;;;;;;;6154385;23;45386;-92
2022/09/25 10:09:15;;;;;;;;;0.00;0.00;;;;;;;;6182663;23;46777;-93
2022/09/25 10:11:42;;;;;;;;;0.00;0.00;;;;;;;;6186865;23;45260;-92
2022/09/25 10:14:12;;;;;;;;;0.00;0.00;;;;;;;;6185986;23;45235;-92
2022/09/25 10:16:37;;;;;;;;;0.00;0.00;;;;;;;;6154946;23;45561;-90
2022/09/25 10:19:20;;;;;;;;;0.00;0.00;;;;;;;;6155681;23;47136;-88
2022/09/25 10:21:48;;;;;;;;;0.00;0.00;;;;;;;;6164584;23;45353;-93
2022/09/25 10:24:34;;;;;;;;;0.00;0.00;;;;;;;;6167760;23;45274;-90
2022/09/25 10:27:18;;;;;;;;;0.00;0.00;;;;;;;;6139517;23;45716;-92
2022/09/25 10:29:44;;;;;;;;;0.00;0.00;;;;;;;;6165461;23;48245;-95
2022/09/25 10:32:10;;;;;;;;;0.00;0.00;;;;;;;;6156850;23;45266;-93
2022/09/25 10:34:35;;;;;;;;;0.00;0.00;;;;;;;;6156708;23;45367;-94
2022/09/25 10:37:13;;;;;;;;;0.00;0.00;;;;;;;;6155461;23;45339;-92
2022/09/25 10:39:39;;;;;;;;;0.00;0.00;;;;;;;;6151991;23;47143;-90
2022/09/25 10:42:24;;;;;;;;;0.00;0.00;;;;;;;;6153199;23;45833;-91
2022/09/25 10:44:50;;;;;;;;;0.00;0.00;;;;;;;;6179721;23;45389;-92
2022/09/25 10:50:11;;;;;;;;;0.00;0.00;;;;;;;;6182750;23;45742;-93
2022/09/25 10:52:51;;;;;;;;;0.00;0.00;;;;;;;;6157176;23;45699;-89
2022/09/25 10:55:24;;;;;;;;;0.00;0.00;;;;;;;;6184730;23;45386;-91
2022/09/25 10:57:55;;;;;;;;;0.00;0.00;;;;;;;;6179922;23;45384;-88
2022/09/25 11:00:22;;;;;;;;;0.00;0.00;;;;;;;;6179661;23;45722;-89
2022/09/25 11:02:52;;;;;;;;;0.00;0.00;;;;;;;;6153833;23;45651;-92
2022/09/25 11:05:20;;;;;;;;;0.00;0.00;;;;;;;;6181220;23;45588;-91
2022/09/25 11:07:51;;;;;;;;;0.00;0.00;;;;;;;;6180085;23;45335;-91
2022/09/25 11:10:20;;;;;;;;;0.00;0.00;;;;;;;;6179585;23;46225;-90
2022/09/25 11:12:45;;;;;;;;;0.00;0.00;;;;;;;;6182225;23;45378;-92
2022/09/25 11:15:16;;;;;;;;;0.00;0.00;;;;;;;;6154573;23;45279;-91
2022/09/25 11:17:42;;;;;;;;;0.00;0.00;;;;;;;;6180652;23;45316;-90
2022/09/25 11:20:15;;;;;;;;;0.00;0.00;;;;;;;;6180668;23;46085;-92
2022/09/25 11:22:42;;;;;;;;;0.00;0.00;;;;;;;;6179220;23;45932;-89
2022/09/25 11:25:26;;;;;;;;;0.00;0.00;;;;;;;;6153892;23;45406;-91
2022/09/25 11:28:01;;;;;;;;;0.00;0.00;;;;;;;;6180301;23;45301;-89
2022/09/25 11:30:31;;;;;;;;;0.00;0.00;;;;;;;;6180401;23;45383;-89
2022/09/25 11:33:05;;;;;;;;;0.00;0.00;;;;;;;;6153874;23;45457;-90
2022/09/25 11:35:49;;;;;;;;;0.00;0.00;;;;;;;;6184632;23;45270;-90
2022/09/25 11:41:29;;;;;;;;;0.00;0.00;;;;;;;;6185081;23;45766;-96
2022/09/25 11:44:27;;;;;;;;;0.00;0.00;;;;;;;;6157504;23;45272;-94
2022/09/25 11:46:55;;;;;;;;;0.00;0.00;;;;;;;;6037799;23;45493;-96
2022/09/25 11:49:30;;;;;;;;;0.00;0.00;;;;;;;;6038357;23;45272;-95
2022/09/25 11:52:15;;;;;;;;;0.00;0.00;;;;;;;;6039832;23;47670;-95
2022/09/25 11:54:58;;;;;;;;;0.00;0.00;;;;;;;;6035226;23;45408;-95
2022/09/25 11:57:30;;;;;;;;;0.00;0.00;;;;;;;;6038149;23;45412;-95
2022/09/25 12:00:14;;;;;;;;;0.00;0.00;;;;;;;;6039588;23;45348;-94
2022/09/25 12:02:55;;;;;;;;;0.00;0.00;;;;;;;;6033807;23;45343;-93
2022/09/25 12:05:28;;;;;;;;;0.00;0.00;;;;;;;;6033911;23;45276;-94
2022/09/25 12:07:54;;;;;;;;;0.00;0.00;;;;;;;;6038014;23;45376;-96
2022/09/25 12:10:51;;;;;;;;;0.00;0.00;;;;;;;;6035504;23;45446;-93
2022/09/25 12:13:30;;;;;;;;;0.00;0.00;;;;;;;;6010237;23;47323;-93
2022/09/25 12:16:05;;;;;;;;;0.00;0.00;;;;;;;;6031259;23;45414;-93
2022/09/25 12:18:31;;;;;;;;;0.00;0.00;;;;;;;;6038415;23;45341;-96
2022/09/25 12:20:59;;;;;;;;;0.00;0.00;;;;;;;;6038996;23;45884;-95
2022/09/25 12:23:25;;;;;;;;;0.00;0.00;;;;;;;;6174708;23;46712;-95
2022/09/25 12:25:56;;;;;;;;;0.00;0.00;;;;;;;;6185048;23;45304;-93
2022/09/25 12:28:24;;;;;;;;;0.00;0.00;;;;;;;;6158298;23;45479;-93
2022/09/25 12:31:12;;;;;;;;;0.00;0.00;;;;;;;;6183147;23;45754;-96
2022/09/25 12:36:27;;;;;;;;;0.00;0.00;;;;;;;;6192591;22;46386;-95
2022/09/25 12:39:13;;;;;;;;;0.00;0.00;;;;;;;;6180993;22;45571;-93
2022/09/25 12:41:47;;;;;;;;;0.00;0.00;;;;;;;;6163091;23;45326;-96
2022/09/25 12:44:25;;;;;;;;;0.00;0.00;;;;;;;;6189527;23;45452;-94
2022/09/25 12:46:54;;;;;;;;;0.00;0.00;;;;;;;;6159096;23;45319;-92
2022/09/25 12:49:25;;;;;;;;;0.00;0.00;;;;;;;;6187371;23;45291;-96
2022/09/25 12:51:51;;;;;;;;;0.00;0.00;;;;;;;;6158298;23;45524;-92
2022/09/25 12:54:16;;;;;;;;;0.00;0.00;;;;;;;;6159376;23;47870;-91
2022/09/25 12:56:50;;;;;;;;;0.00;0.00;;;;;;;;6186451;23;45246;-91
2022/09/25 12:59:37;;;;;;;;;0.00;0.00;;;;;;;;6182629;23;45586;-90
2022/09/25 13:02:26;;;;;;;;;0.00;0.00;;;;;;;;6180593;23;45507;-95
2022/09/25 13:05:03;;;;;;;;;0.00;0.00;;;;;;;;6188000;23;45356;-96
2022/09/25 13:07:35;;;;;;;;;0.00;0.00;;;;;;;;6188479;23;45267;-95
2022/09/25 13:10:02;;;;;;;;;0.00;0.00;;;;;;;;6185649;23;45384;-93
2022/09/25 13:12:37;;;;;;;;;0.00;0.00;;;;;;;;6164098;23;45179;-92
2022/09/25 13:15:09;;;;;;;;;0.00;0.00;;;;;;;;6162935;23;47163;-93
2022/09/25 13:17:35;;;;;;;;;0.00;0.00;;;;;;;;6192855;22;45343;-96
2022/09/25 13:20:35;;;;;;;;;0.00;0.00;;;;;;;;6158639;23;45405;-95
2022/09/25 13:23:03;;;;;;;;;0.00;0.00;;;;;;;;6113297;23;45469;-93
2022/09/25 13:25:29;;;;;;;;;0.00;0.00;;;;;;;;6088546;23;48231;-92
2022/09/25 13:27:56;;;;;;;;;0.00;0.00;;;;;;;;6091140;23;45543;-96
2022/09/25 13:30:26;;;;;;;;;0.00;0.00;;;;;;;;6117272;23;45260;-96
2022/09/25 13:32:52;;;;;;;;;0.00;0.00;;;;;;;;6118878;23;45335;-96
2022/09/25 13:35:19;;;;;;;;;0.00;0.00;;;;;;;;6090824;23;45694;-92
2022/09/25 13:37:45;;;;;;;;;0.00;0.00;;;;;;;;6114300;23;45869;-94
2022/09/25 13:40:42;;;;;;;;;0.00;0.00;;;;;;;;6117082;23;45578;-95
2022/09/25 13:43:22;;;;;;;;;0.00;0.00;;;;;;;;6129631;23;45309;-94
2022/09/25 13:45:49;;;;;;;;;0.00;0.00;;;;;;;;6129213;23;46303;-96
2022/09/25 13:48:34;;;;;;;;;0.00;0.00;;;;;;;;6129007;23;45483;-95
2022/09/25 13:51:18;;;;;;;;;0.00;0.00;;;;;;;;6114632;23;45665;-93
2022/09/25 13:53:58;;;;;;;;;0.00;0.00;;;;;;;;6105528;23;45307;-96
2022/09/25 13:56:27;;;;;;;;;0.00;0.00;;;;;;;;6107702;23;45532;-96
2022/09/25 13:59:13;;;;;;;;;0.00;0.00;;;;;;;;6161730;23;45300;-96
2022/09/25 14:01:40;;;;;;;;;0.00;0.00;;;;;;;;6201465;22;45979;-93
2022/09/25 14:04:25;;;;;;;;;0.00;0.00;;;;;;;;6142907;23;45328;-96
2022/09/25 14:06:57;;;;;;;;;0.00;0.00;;;;;;;;6201822;22;47098;-96
2022/09/25 14:09:24;;;;;;;;;0.00;0.00;;;;;;;;6164921;23;45311;-96
2022/09/25 14:11:54;;;;;;;;;0.00;0.00;;;;;;;;6195344;23;44758;-95
2022/09/25 14:14:31;;;;;;;;;0.00;0.00;;;;;;;;6167180;23;44792;-95
2022/09/25 14:16:59;;;;;;;;;0.00;0.00;;;;;;;;6195932;23;45476;-96
2022/09/25 14:19:44;;;;;;;;;0.00;0.00;;;;;;;;6167937;23;45785;-96
2022/09/25 14:32:36;;;;;;;;;0.00;0.00;;;;;;;;6218354;22;45266;-93
2022/09/25 14:35:12;;;;;;;;;0.00;0.00;;;;;;;;6219222;22;45321;-96
2022/09/25 14:37:43;;;;;;;;;0.00;0.00;;;;;;;;6217762;22;46210;-91
2022/09/25 14:40:19;;;;;;;;;0.00;0.00;;;;;;;;6218145;22;45318;-96
2022/09/25 14:50:48;;;;;;;;;0.00;0.00;;;;;;;;6199026;22;46087;-96
2022/09/25 14:53:40;;;;;;;;;0.00;0.00;;;;;;;;6169008;22;45676;-96
2022/09/25 14:56:14;;;;;;;;;0.00;0.00;;;;;;;;6226555;22;45528;-96
2022/09/25 14:58:44;;;;;;;;;0.00;0.00;;;;;;;;6197144;23;45620;-95
2022/09/25 15:01:12;;;;;;;;;0.00;0.00;;;;;;;;6195264;23;45203;-96
2022/09/25 15:03:40;;;;;;;;;0.00;0.00;;;;;;;;6196374;23;44693;-96
2022/09/25 15:06:06;;;;;;;;;0.00;0.00;;;;;;;;6199220;23;44796;-96
2022/09/25 15:08:39;;;;;;;;;0.00;0.00;;;;;;;;6198164;23;45328;-96
2022/09/25 15:11:12;;;;;;;;;0.00;0.00;;;;;;;;6172675;23;45834;-96
2022/09/25 15:13:38;;;;;;;;;0.00;0.00;;;;;;;;6179101;23;44611;-95
2022/09/25 15:18:53;;;;;;;;;0.00;0.00;;;;;;;;6197044;23;45899;-95
2022/09/25 15:21:33;;;;;;;;;0.00;0.00;;;;;;;;6166647;22;45880;-96
2022/09/25 15:24:09;;;;;;;;;0.00;0.00;;;;;;;;6199498;23;44691;-96
2022/09/25 15:29:17;;;;;;;;;0.00;0.00;;;;;;;;6224616;22;46292;-96
2022/09/25 15:31:49;;;;;;;;;0.00;0.00;;;;;;;;6231342;22;45312;-96
2022/09/25 15:34:18;;;;;;;;;0.00;0.00;;;;;;;;6200649;22;45391;-96
2022/09/25 15:36:44;;;;;;;;;0.00;0.00;;;;;;;;6194084;22;44900;-96
2022/09/25 15:39:14;;;;;;;;;0.00;0.00;;;;;;;;6216148;22;45391;-95
2022/09/25 15:41:40;;;;;;;;;0.00;0.00;;;;;;;;6188203;22;45375;-96
2022/09/25 15:44:11;;;;;;;;;0.00;0.00;;;;;;;;6188969;22;45358;-96
2022/09/25 15:46:38;;;;;;;;;0.00;0.00;;;;;;;;6214144;22;45204;-96
2022/09/25 15:49:04;;;;;;;;;0.00;0.00;;;;;;;;6187973;22;45972;-96